Tiempo atmosférico en la estación meteorológica de Oliva, València/Valencia (5 m.)



Fecha
DESCASC
Temp. máxima en grados centígrados (hora)
DESCASC
Temp. mínima en grados centígrados (hora)
DESCASC
Temp. media en grados centígrados
DESCASC
Racha de viento máxima en m/sg (hora)
DESCASC
Velocidad máxima media en intervalos de 10 minutos(hora)
DESCASC
Precipitaciones diarias en mm
DESCASC
Precipitaciones de 00:00 a 06:00 en mm
DESCASC
Precipitaciones de 06:00 a 12:00 en mm
DESCASC
Precipitaciones de 12:00 a 18:00 en mm
DESCASC
Precipitaciones de 18:00 a 24:00 en mm
DESCASC
05-12-2019 16.4 (14:40) 10.9 (08:10) 13.6 10 (18:40) 6.11 (18:00) 2.1 0.2 0 0 1.9
04-12-2019 -- (--) -- (--) -- -- (--) -- (--) -- -- -- 2.4 0.4
03-12-2019 -- (--) -- (--) -- -- (--) -- (--) -- 0.6 1.3 10.8 --
02-12-2019 15.5 (03:00) 10.4 (00:00) 12.9 14.17 (18:40) 8.61 (18:30) 115.4 28.6 44.5 32.5 9.8
01-12-2019 20.1 (15:00) 9.5 (00:00) 14.8 8.61 (11:40) 4.72 (11:40) 0 0 0 0 0
30-11-2019 22.9 (13:10) 12.1 (00:00) 17.5 7.22 (11:30) 3.33 (07:10) 0 0 0 0 0
29-11-2019 22.8 (14:30) 15.2 (00:00) 19 10.83 (13:00) 5 (13:50) 0 0 0 0 0
28-11-2019 20.6 (13:40) 13.2 (06:50) 16.9 11.39 (13:20) 6.11 (08:50) 0 0 0 0 0
27-11-2019 22.6 (13:20) 14.1 (00:00) 18.4 12.78 (14:00) 6.67 (12:50) 0 0 0 0 0
26-11-2019 23.2 (14:30) 13.6 (00:00) 18.4 10.83 (12:40) 5 (12:40) 0 0 0 0 0
25-11-2019 21.3 (13:00) 11.7 (00:00) 16.5 12.78 (16:40) 6.11 (14:30) 0 0 0 0 0
24-11-2019 18.1 (15:30) 11 (00:00) 14.6 13.06 (01:10) 6.39 (00:20) 0 0 0 0 0
23-11-2019 17.6 (13:20) 12 (00:00) 14.8 18.33 (11:30) 8.33 (11:30) 0.3 0.3 0 0 0
22-11-2019 -- (--) -- (--) -- 8.89 (21:20) 3.33 (21:20) 1.1 0.1 0 0.2 0.8
21-11-2019 -- (--) -- (--) -- 4.17 (06:00) 2.22 (09:20) 0.2 0.1 0 0 0.1
20-11-2019 16.8 (12:40) 5.9 (02:50) 11.3 7.5 (16:10) 4.44 (16:10) 0.3 0 0 0 0.3
19-11-2019 16.5 (14:00) 5.8 (00:00) 11.2 8.33 (10:30) 3.61 (10:30) 0 0 0 0 0
18-11-2019 15.9 (12:50) 6.7 (00:00) 11.3 9.72 (01:40) 3.89 (01:20) 0.1 0 0.1 0 0
17-11-2019 17.3 (13:00) 8.3 (00:00) 12.8 11.39 (11:20) 5.56 (03:50) 0 0 0 0 0
16-11-2019 15.9 (16:50) 7.9 (00:00) 11.9 8.06 (10:00) 3.89 (10:20) 0 0 0 0 0
15-11-2019 16.7 (14:30) 8.6 (00:00) 12.7 10.83 (02:30) 4.44 (12:10) 0 0 0 0 0
14-11-2019 17.6 (12:50) 9.6 (00:00) 13.6 13.89 (16:20) 6.39 (14:50) 0 0 0 0 0
13-11-2019 21.3 (12:20) 11.3 (00:00) 16.3 13.33 (12:50) 5.83 (12:50) 3.4 0.4 1.5 1.5 0
12-11-2019 19.8 (16:40) 10.5 (00:00) 15.1 8.06 (21:50) 4.17 (21:30) 0 0 0 0 0
11-11-2019 17.9 (14:10) 8.9 (05:50) 13.4 9.44 (10:40) 4.72 (10:20) 0 0 0 0 0
10-11-2019 -- (--) -- (--) -- -- (--) -- (--) -- 0 -- 0 0
09-11-2019 20.1 (14:10) 10.9 (00:00) 15.5 11.11 (15:20) 5.28 (15:20) 0 0 0 0 0
08-11-2019 17.5 (14:10) 10 (06:50) 13.8 13.33 (16:30) 7.22 (15:10) 0 0 0 0 0

Gráficas

Temp. máximas Temp. mínimas Temp. medias Precipitaciones Rachas de viento máximas Velocidades máximas media en intervalos de 10 minutos

Datos horarios

Fecha y hora oficial Temperatura (ºC) Velocidad del viento (km/h) Dirección del viento Racha (km/h) Dirección de racha Precipitación (mm) Presión (hPa) Tendencia (hPa) Humedad (%)
2019-12-07 23:00:00 8.8 4 Noroeste 7 Oeste 0 -- -- --
2019-12-07 22:00:00 9.5 0 Calma -- -- 0 -- -- --
2019-12-07 21:00:00 10.1 0 Calma -- -- 0 -- -- --
2019-12-07 20:00:00 10.9 0 Calma -- -- 0 -- -- --
2019-12-07 19:00:00 12.3 0 Calma 8 Sudeste 0 -- -- --
2019-12-07 18:00:00 14.4 4 Sudeste 10 Sudeste 0 -- -- --
2019-12-07 17:00:00 14.9 6 Sudeste 12 Sudeste 0 -- -- --
2019-12-07 16:00:00 15.4 5 Este 10 Este 0 -- -- --
2019-12-07 15:00:00 15.8 6 Nordeste 13 Este 0 -- -- --
2019-12-07 14:00:00 15.8 7 Nordeste 13 Este 0 -- -- --
2019-12-07 13:00:00 15.9 6 Nordeste 10 Nordeste 0 -- -- --
2019-12-07 12:00:00 15.7 6 Nordeste 12 Oeste 0 -- -- --
2019-12-07 11:00:00 15.1 4 Noroeste 8 Noroeste 0 -- -- --
2019-12-07 10:00:00 12.5 2 Este 5 Este 0 -- -- --
2019-12-07 09:00:00 9.3 0 Calma 3 Oeste 0 -- -- --
2019-12-07 08:00:00 8.9 0 Calma 5 Oeste 0 -- -- --
2019-12-07 07:00:00 9.4 2 Oeste 9 Noroeste 0 -- -- --
2019-12-07 06:00:00 9.7 3 Noroeste 9 Oeste 0 -- -- --
2019-12-07 05:00:00 10.1 6 Oeste 9 Oeste 0 -- -- --
2019-12-07 04:00:00 10.7 3 Oeste 10 Oeste 0 -- -- --
2019-12-07 03:00:00 11.3 6 Noroeste 10 Noroeste 0 -- -- --
2019-12-07 02:00:00 11.2 5 Oeste 10 Noroeste 0 -- -- --
2019-12-07 01:00:00 10.5 4 Noroeste 8 Noroeste 0 -- -- --
2019-12-07 00:00:00 10.4 5 Noroeste 8 Noroeste 0 -- -- --
2019-12-06 23:00:00 10.9 3 Oeste 7 Oeste 0 -- -- --
2019-12-06 22:00:00 11.5 4 Oeste 6 Oeste 0 -- -- --
2019-12-06 21:00:00 12.4 0 Calma 7 Noroeste 0 -- -- --
2019-12-06 20:00:00 12.9 3 Noroeste 8 Noroeste 0 -- -- --
2019-12-06 19:00:00 12.8 4 Oeste 8 Noroeste 0 -- -- --
2019-12-06 18:00:00 14 4 Noroeste 8 Noroeste 0 -- -- --
2019-12-06 17:00:00 15.2 4 Oeste 12 Norte 0 -- -- --
2019-12-06 16:00:00 15.7 8 Noroeste 18 Norte 0 -- -- --
2019-12-06 15:00:00 15.3 9 Norte 18 Norte 0 -- -- --
2019-12-06 14:00:00 15.8 9 Norte 19 Norte 0 -- -- --
2019-12-06 13:00:00 15.6 10 Norte 20 Norte 0 -- -- --
2019-12-06 12:00:00 15.5 8 Noroeste 16 Oeste 0 -- -- --
2019-12-06 11:00:00 14.6 5 Noroeste 11 Oeste 0 -- -- --
2019-12-06 10:00:00 12.9 5 Oeste 12 Oeste 0 -- -- --
2019-12-06 09:00:00 11.8 6 Oeste 12 Noroeste 0 -- -- --
2019-12-06 08:00:00 11.3 5 Oeste 9 Oeste 0 -- -- --
2019-12-06 07:00:00 11.1 4 Oeste 8 Oeste 0 -- -- --
2019-12-06 06:00:00 11.4 3 Oeste 8 Oeste 0 -- -- --
2019-12-06 05:00:00 11.3 4 Oeste 9 Noroeste 0 -- -- --
2019-12-06 04:00:00 12.1 0 Calma 5 Oeste 0 -- -- --
2019-12-06 03:00:00 12.5 4 Noroeste 13 Norte 0 -- -- --
2019-12-06 02:00:00 13.5 9 Norte 19 Norte 0 -- -- --
2019-12-06 01:00:00 13.7 9 Norte 17 Norte 0 -- -- --
2019-12-06 00:00:00 13.8 6 Nordeste 17 Norte 0 -- -- --
2019-12-05 23:00:00 13.9 7 Nordeste 18 Nordeste 0 -- -- --
2019-12-05 22:00:00 13.8 12 Nordeste 22 Nordeste 0.2 -- -- --
2019-12-05 21:00:00 13.9 13 Nordeste 30 Nordeste 1.4 -- -- --
2019-12-05 20:00:00 14.1 18 Nordeste 33 Nordeste 0.3 -- -- --
2019-12-05 19:00:00 14.4 22 Nordeste 36 Nordeste 0 -- -- --
2019-12-05 18:00:00 14.6 22 Nordeste 32 Nordeste 0 -- -- --
2019-12-05 17:00:00 14.9 15 Nordeste 23 Este 0 -- -- --
2019-12-05 16:00:00 14.7 7 Noroeste 18 Norte 0 -- -- --
2019-12-05 15:00:00 15.5 7 Norte 14 Noroeste 0 -- -- --
2019-12-05 14:00:00 16.2 6 Oeste 14 Noroeste 0 -- -- --
2019-12-05 13:00:00 14.8 6 Noroeste 17 Noroeste 0 -- -- --
2019-12-05 12:00:00 15 9 Noroeste 21 Norte 0 -- -- --
2019-12-05 11:00:00 14.3 8 Oeste 15 Noroeste 0 -- -- --
2019-12-05 10:00:00 12.2 5 Oeste 9 Oeste 0 -- -- --
2019-12-05 09:00:00 11.3 4 Oeste 9 Oeste 0 -- -- --
2019-12-05 08:00:00 11.1 0 Calma 5 Oeste 0 -- -- --
2019-12-05 07:00:00 11.6 0 Calma 5 Oeste 0 -- -- --
2019-12-05 06:00:00 11.4 3 Oeste 7 Oeste 0 -- -- --
2019-12-05 05:00:00 11.3 3 Noroeste 7 Noroeste 0 -- -- --
2019-12-05 04:00:00 11.4 0 Calma 8 Oeste 0.1 -- -- --
2019-12-05 03:00:00 11.4 4 Noroeste 6 Noroeste 0 -- -- --
2019-12-05 02:00:00 11.5 0 Calma 7 Sudeste 0.1 -- -- --
2019-12-05 01:00:00 11.6 0 Calma 9 Noroeste 0 -- -- --
2019-12-05 00:00:00 11.6 4 Oeste 10 Noroeste 0.1 -- -- --
2019-12-04 23:00:00 11.6 3 Oeste 18 Oeste 0.2 -- -- --
2019-12-04 22:00:00 11.6 8 Oeste 14 Oeste 0.1 -- -- --
2019-12-04 21:00:00 11.5 9 Noroeste 16 Oeste 0 -- -- --
2019-12-04 20:00:00 11.5 9 Oeste 18 Noroeste 0 -- -- --
2019-12-04 19:00:00 11.4 7 Oeste 14 Oeste 0 -- -- --
2019-12-04 18:00:00 11.6 5 Oeste 15 Oeste 2.2 -- -- --
2019-12-04 17:00:00 12.6 9 Oeste 18 Oeste 0 -- -- --
2019-12-04 16:00:00 12.9 4 Oeste 10 Oeste 0 -- -- --
2019-12-04 15:00:00 13.1 5 Oeste 22 Norte 0 -- -- --
2019-12-04 14:00:00 13 10 Noroeste 28 Norte 0 -- -- --
2019-12-04 13:00:00 12.8 18 Norte 37 Norte 0.2 -- -- --
2019-12-04 12:00:00 13.2 19 Norte 38 Nordeste 0 -- -- --
2019-12-04 11:00:00 13.3 19 Nordeste 37 Norte 0 -- -- --
2019-12-04 10:00:00 13.1 21 Nordeste -- -- 1.4 -- -- --
2019-12-04 09:00:00 -- -- -- -- -- -- -- -- --
2019-12-04 08:00:00 -- -- -- -- -- -- -- -- --
2019-12-04 07:00:00 -- -- -- -- -- -- -- -- --
2019-12-04 06:00:00 -- -- -- -- -- -- -- -- --
2019-12-04 05:00:00 -- -- -- -- -- -- -- -- --
2019-12-04 04:00:00 -- -- -- -- -- -- -- -- --
2019-12-04 03:00:00 -- -- -- -- -- -- -- -- --
2019-12-04 02:00:00 -- -- -- -- -- -- -- -- --
2019-12-04 01:00:00 -- -- -- -- -- -- -- -- --
2019-12-04 00:00:00 -- -- -- -- -- -- -- -- --
2019-12-03 23:00:00 -- -- -- -- -- -- -- -- --
2019-12-03 22:00:00 -- -- -- -- -- -- -- -- --
2019-12-03 21:00:00 -- -- -- -- -- -- -- -- --
2019-12-03 20:00:00 11.8 25 Norte 46 Norte 3 -- -- --
2019-12-03 19:00:00 11.6 25 Norte 47 Norte 4.1 -- -- --
2019-12-03 18:00:00 11.7 23 Norte 45 Norte 3.1 -- -- --
2019-12-03 17:00:00 12 21 Nordeste 44 Nordeste 2.8 -- -- --
2019-12-03 16:00:00 12.5 24 Nordeste 45 Nordeste 1.6 -- -- --
2019-12-03 15:00:00 12.6 18 Nordeste 49 Este 1.9 -- -- --
2019-12-03 14:00:00 13 17 Este 50 Nordeste 0.7 -- -- --
2019-12-03 13:00:00 12.6 24 Nordeste 41 Nordeste 0.7 -- -- --
2019-12-03 12:00:00 12.1 20 Nordeste 41 Nordeste 1.3 -- -- --
2019-12-03 11:00:00 12.4 26 Nordeste 42 Nordeste 0 -- -- --
2019-12-03 10:00:00 13.2 20 Nordeste 39 Nordeste 0 -- -- --
2019-12-03 09:00:00 13.3 23 Nordeste 42 Nordeste 0 -- -- --
2019-12-03 08:00:00 14.1 22 Este 45 Nordeste 0 -- -- --
2019-12-03 07:00:00 14.1 22 Nordeste 37 Este 0 -- -- --
2019-12-03 06:00:00 14.1 19 Este 37 Este 0 -- -- --
2019-12-03 05:00:00 14.2 23 Nordeste 38 Este 0 -- -- --
2019-12-03 04:00:00 13.8 23 Nordeste 37 Este 0.1 -- -- --
2019-12-03 03:00:00 14.2 22 Nordeste 33 Nordeste 0.3 -- -- --
2019-12-03 02:00:00 14.2 12 Este 35 Nordeste 0.2 -- -- --
2019-12-03 01:00:00 14.4 22 Nordeste 35 Este 0 -- -- --
2019-12-03 00:00:00 14.2 20 Nordeste 38 Nordeste 0.5 -- -- --
2019-12-02 23:00:00 14 23 Nordeste 42 Nordeste 1.3 -- -- --
2019-12-02 22:00:00 13.4 28 Nordeste 44 Nordeste 4.1 -- -- --
2019-12-02 21:00:00 14.3 18 Este 41 Nordeste 0.5 -- -- --
2019-12-02 20:00:00 14.4 18 Este 44 Nordeste 1.1 -- -- --
2019-12-02 19:00:00 14.5 27 Nordeste 51 Nordeste 2.3 -- -- --
2019-12-02 18:00:00 14.5 19 Este 47 Este 21.3 -- -- --
2019-12-02 17:00:00 13.6 10 Este 30 Este 10.7 -- -- --
2019-12-02 16:00:00 14.4 0 Calma 11 Nordeste 0 -- -- --
2019-12-02 15:00:00 14.5 6 Norte 11 Norte 0 -- -- --
2019-12-02 14:00:00 14.4 3 Nordeste -- -- 0 -- -- --
2019-12-02 13:00:00 13.9 4 Sur 9 Sur 0.5 -- -- --
2019-12-02 12:00:00 13.3 0 Calma 18 Noroeste 1.4 -- -- --
2019-12-02 11:00:00 12.5 10 Noroeste 21 Noroeste 17.9 -- -- --
2019-12-02 10:00:00 13.7 9 Norte 27 Nordeste 16.6 -- -- --
2019-12-02 09:00:00 13 7 Noroeste 14 Noroeste 8.5 -- -- --
2019-12-02 08:00:00 13.6 2 Noroeste 25 Norte 0 -- -- --
2019-12-02 07:00:00 13.3 11 Norte 38 Norte 0.1 -- -- --
2019-12-02 06:00:00 13.1 11 Norte 32 Norte 10.2 -- -- --
2019-12-02 05:00:00 13.7 13 Norte 47 Nordeste 16.5 -- -- --
2019-12-02 04:00:00 14.7 17 Nordeste 33 Nordeste 1.9 -- -- --
2019-12-02 03:00:00 15.2 17 Nordeste 27 Nordeste 0 -- -- --
2019-12-02 02:00:00 14.5 8 Nordeste 13 Nordeste 0 -- -- --
2019-12-02 01:00:00 12.2 6 Noroeste 13 Noroeste 0 -- -- --
2019-12-02 00:00:00 10.5 5 Oeste 9 Noroeste 0 -- -- --
2019-12-01 23:00:00 11.8 6 Noroeste 11 Noroeste 0 -- -- --
2019-12-01 22:00:00 11.1 2 Noroeste 5 Norte 0 -- -- --
2019-12-01 21:00:00 10.5 0 Calma 5 Sur 0 -- -- --
2019-12-01 20:00:00 12 0 Calma 5 Sur 0 -- -- --
2019-12-01 19:00:00 14.6 4 Sur 7 Sur 0 -- -- --
2019-12-01 18:00:00 15.5 3 Sur 8 Sur 0 -- -- --
2019-12-01 17:00:00 17 5 Sur 12 Este 0 -- -- --
2019-12-01 16:00:00 17.6 7 Nordeste 14 Nordeste 0 -- -- --
2019-12-01 15:00:00 20.1 8 Oeste 21 Oeste 0 -- -- --
2019-12-01 14:00:00 18.6 10 Noroeste 26 Noroeste 0 -- -- --
2019-12-01 13:00:00 18 9 Oeste 26 Noroeste 0 -- -- --
2019-12-01 12:00:00 17.3 14 Noroeste 31 Noroeste 0 -- -- --
2019-12-01 11:00:00 16.5 10 Noroeste 17 Noroeste 0 -- -- --
2019-12-01 10:00:00 14.4 5 Noroeste 15 Noroeste 0 -- -- --
2019-12-01 09:00:00 13.6 8 Oeste 17 Noroeste 0 -- -- --
2019-12-01 08:00:00 9.8 0 Calma 8 Oeste 0 -- -- --
2019-12-01 07:00:00 10.3 3 Noroeste 13 Oeste 0 -- -- --
2019-12-01 06:00:00 10.7 3 Sur 8 Sur 0 -- -- --
2019-12-01 05:00:00 9.8 0 Calma 4 Noroeste 0 -- -- --
2019-12-01 04:00:00 10.3 0 Calma 9 Oeste 0 -- -- --
2019-12-01 03:00:00 11.2 0 Calma 7 Sur 0 -- -- --
2019-12-01 02:00:00 11.9 0 Calma 6 Oeste 0 -- -- --
2019-12-01 01:00:00 12.9 0 Calma 12 Oeste 0 -- -- --
2019-12-01 00:00:00 13.6 4 Oeste 14 Oeste 0 -- -- --
2019-11-30 23:00:00 12.3 0 Calma 9 Oeste 0 -- -- --
2019-11-30 22:00:00 12.4 0 Calma 5 Sur 0 -- -- --
2019-11-30 21:00:00 13.3 0 Calma 8 Noroeste 0 -- -- --
2019-11-30 20:00:00 14.5 0 Calma 6 Noroeste 0 -- -- --
2019-11-30 19:00:00 15.6 0 Calma 8 Oeste 0 -- -- --
2019-11-30 18:00:00 17.4 0 Calma 9 Sudeste 0 -- -- --
2019-11-30 17:00:00 18.7 4 Sudeste 10 Sudeste 0 -- -- --
2019-11-30 16:00:00 18.9 5 Sudeste 16 Este 0 -- -- --
2019-11-30 15:00:00 19.2 9 Sudeste 17 Sudeste 0 -- -- --
2019-11-30 14:00:00 21 7 Este 15 Oeste 0 -- -- --
2019-11-30 13:00:00 22.7 5 Oeste 21 Oeste 0 -- -- --
2019-11-30 12:00:00 21.1 12 Oeste 26 Oeste 0 -- -- --
2019-11-30 11:00:00 20 6 Oeste 18 Oeste 0 -- -- --
2019-11-30 10:00:00 18.3 6 Oeste 15 Oeste 0 -- -- --
2019-11-30 09:00:00 16.5 6 Sudoeste 21 Oeste 0 -- -- --
2019-11-30 08:00:00 15.1 6 Oeste 25 Oeste 0 -- -- --
2019-11-30 07:00:00 14.7 11 Oeste 22 Oeste 0 -- -- --
2019-11-30 06:00:00 14.7 4 Oeste 10 Oeste 0 -- -- --
2019-11-30 05:00:00 14.9 4 Oeste 22 Oeste 0 -- -- --
2019-11-30 04:00:00 15.1 5 Oeste 17 Oeste 0 -- -- --
2019-11-30 03:00:00 15 0 Calma 9 Oeste 0 -- -- --
2019-11-30 02:00:00 15.3 0 Calma 13 Oeste 0 -- -- --
2019-11-30 01:00:00 15.8 6 Oeste 11 Noroeste 0 -- -- --
2019-11-30 00:00:00 16.8 4 Oeste 18 Oeste 0 -- -- --
2019-11-29 23:00:00 16.9 7 Oeste 21 Oeste 0 -- -- --
2019-11-29 22:00:00 17.1 8 Oeste 17 Oeste 0 -- -- --
2019-11-29 21:00:00 16.8 6 Oeste 26 Oeste 0 -- -- --
2019-11-29 20:00:00 17.8 10 Oeste 25 Oeste 0 -- -- --
2019-11-29 19:00:00 18 10 Oeste 20 Oeste 0 -- -- --
2019-11-29 18:00:00 18.7 4 Oeste 17 Oeste 0 -- -- --
2019-11-29 17:00:00 20.5 9 Oeste 29 Oeste 0 -- -- --
2019-11-29 16:00:00 21.5 14 Oeste 34 Oeste 0 -- -- --
2019-11-29 15:00:00 21.9 15 Oeste 37 Oeste 0 -- -- --
2019-11-29 14:00:00 21.6 18 Oeste 35 Oeste 0 -- -- --
2019-11-29 13:00:00 22.1 17 Oeste 39 Oeste 0 -- -- --
2019-11-29 12:00:00 21.5 14 Oeste 34 Noroeste 0 -- -- --
2019-11-29 11:00:00 21 14 Noroeste 28 Noroeste 0 -- -- --
2019-11-29 10:00:00 19.5 10 Noroeste 22 Noroeste 0 -- -- --
2019-11-29 09:00:00 17.6 3 Oeste 22 Oeste 0 -- -- --
2019-11-29 08:00:00 17.2 10 Oeste 21 Noroeste 0 -- -- --
2019-11-29 07:00:00 16.6 8 Noroeste 16 Noroeste 0 -- -- --
2019-11-29 06:00:00 16.5 0 Calma 13 Norte 0 -- -- --
2019-11-29 05:00:00 16.4 8 Oeste 19 Oeste 0 -- -- --
2019-11-29 04:00:00 16.5 3 Oeste 13 Oeste 0 -- -- --
2019-11-29 03:00:00 16.6 3 Sudoeste 20 Noroeste 0 -- -- --
2019-11-29 02:00:00 16.4 6 Oeste 15 Oeste 0 -- -- --
2019-11-29 01:00:00 16.1 0 Calma 17 Oeste 0 -- -- --
2019-11-29 00:00:00 15.2 5 Oeste 18 Oeste 0 -- -- --
2019-11-28 23:00:00 15.7 5 Oeste 22 Sudeste 0 -- -- --
2019-11-28 22:00:00 15 0 Calma 15 Nordeste 0 -- -- --
2019-11-28 21:00:00 15.1 0 Calma 14 Noroeste 0 -- -- --
2019-11-28 20:00:00 14.9 6 Noroeste 14 Oeste 0 -- -- --
2019-11-28 19:00:00 15.7 5 Oeste 20 Oeste 0 -- -- --
2019-11-28 18:00:00 16.5 9 Oeste 24 Oeste 0 -- -- --
2019-11-28 17:00:00 18 14 Oeste 29 Noroeste 0 -- -- --
2019-11-28 16:00:00 19.1 13 Oeste 33 Oeste 0 -- -- --
2019-11-28 15:00:00 20 17 Oeste 36 Oeste 0 -- -- --
2019-11-28 14:00:00 20.5 15 Oeste 41 Oeste 0 -- -- --
2019-11-28 13:00:00 19.8 15 Oeste 38 Oeste 0 -- -- --
2019-11-28 12:00:00 19.3 13 Oeste 40 Noroeste 0 -- -- --
2019-11-28 11:00:00 17.6 18 Oeste 37 Oeste 0 -- -- --
2019-11-28 10:00:00 17.1 3 Oeste 37 Oeste 0 -- -- --
2019-11-28 09:00:00 15.6 14 Oeste 36 Oeste 0 -- -- --
2019-11-28 08:00:00 14.4 13 Noroeste 24 Noroeste 0 -- -- --
2019-11-28 07:00:00 13.7 12 Oeste 24 Noroeste 0 -- -- --
2019-11-28 06:00:00 14.3 10 Oeste 23 Oeste 0 -- -- --
2019-11-28 05:00:00 14.9 5 Noroeste 19 Noroeste 0 -- -- --
2019-11-28 04:00:00 14.7 0 Calma 13 Norte 0 -- -- --
2019-11-28 03:00:00 15.4 0 Calma 25 Oeste 0 -- -- --
2019-11-28 02:00:00 15.6 11 Oeste 29 Oeste 0 -- -- --
2019-11-28 01:00:00 15.9 16 Oeste 29 Oeste 0 -- -- --
2019-11-28 00:00:00 16.4 7 Noroeste 28 Oeste 0 -- -- --
2019-11-27 23:00:00 16.2 14 Noroeste 27 Noroeste 0 -- -- --
2019-11-27 22:00:00 16.2 11 Noroeste 27 Noroeste 0 -- -- --
2019-11-27 21:00:00 16.3 12 Noroeste 22 Noroeste 0 -- -- --
2019-11-27 20:00:00 16.5 9 Noroeste 30 Noroeste 0 -- -- --
2019-11-27 19:00:00 16.9 6 Oeste 18 Oeste 0 -- -- --
2019-11-27 18:00:00 18.1 10 Oeste 29 Oeste 0 -- -- --
2019-11-27 17:00:00 19.5 13 Noroeste 27 Noroeste 0 -- -- --
2019-11-27 16:00:00 21.3 10 Oeste 26 Oeste 0 -- -- --
2019-11-27 15:00:00 22.3 10 Oeste 44 Oeste 0 -- -- --
2019-11-27 14:00:00 21.9 20 Oeste 46 Oeste 0 -- -- --
2019-11-27 06:00:00 17.6 5 Oeste 17 Oeste 0 -- -- --
2019-11-27 05:00:00 17.9 11 Oeste 27 Oeste 0 -- -- --
2019-11-27 04:00:00 17.8 5 Oeste 20 Oeste 0 -- -- --
2019-11-27 03:00:00 18.3 9 Oeste 24 Oeste 0 -- -- --
2019-11-27 02:00:00 16.3 10 Oeste 19 Oeste 0 -- -- --
2019-11-27 01:00:00 14.3 2 Sur 8 Sur 0 -- -- --
2019-11-27 00:00:00 14.5 3 Sur 8 Noroeste 0 -- -- --
2019-11-26 23:00:00 15.2 0 Calma 5 Oeste 0 -- -- --
2019-11-26 22:00:00 15.9 0 Calma 9 Oeste 0 -- -- --
2019-11-26 21:00:00 15.5 0 Calma 8 Sur 0 -- -- --
2019-11-26 20:00:00 17.1 0 Calma 6 Sur 0 -- -- --
2019-11-26 19:00:00 19.3 3 Sur 17 Oeste 0 -- -- --
2019-11-26 18:00:00 19.4 4 Oeste 24 Oeste 0 -- -- --
2019-11-26 17:00:00 21.3 10 Oeste 22 Oeste 0 -- -- --
2019-11-26 16:00:00 22.4 5 Oeste 28 Oeste 0 -- -- --
2019-11-26 15:00:00 22.8 15 Oeste 32 Oeste 0 -- -- --
2019-11-26 14:00:00 22.7 12 Oeste 32 Oeste 0 -- -- --
2019-11-26 13:00:00 21.8 14 Oeste 39 Oeste 0 -- -- --
2019-11-26 12:00:00 21.3 15 Oeste 36 Oeste 0 -- -- --
2019-11-26 11:00:00 19.5 12 Oeste 33 Oeste 0 -- -- --
2019-11-26 10:00:00 18.6 12 Oeste 26 Oeste 0 -- -- --
2019-11-26 09:00:00 16.5 6 Oeste 18 Oeste 0 -- -- --
2019-11-26 08:00:00 15 0 Calma 16 Oeste 0 -- -- --
2019-11-26 07:00:00 14.5 0 Calma 9 Norte 0 -- -- --
2019-11-26 06:00:00 14.6 0 Calma 10 Noroeste 0 -- -- --
2019-11-26 05:00:00 14.5 0 Calma 15 Oeste 0 -- -- --
2019-11-26 04:00:00 15.1 6 Noroeste 10 Noroeste 0 -- -- --
2019-11-26 03:00:00 15.8 0 Calma 7 Norte 0 -- -- --
2019-11-26 02:00:00 15.8 3 Oeste 18 Oeste 0 -- -- --
2019-11-26 01:00:00 16.9 10 Oeste 24 Oeste 0 -- -- --
2019-11-26 00:00:00 17.1 6 Oeste 20 Oeste 0 -- -- --
2019-11-25 23:00:00 16.3 4 Oeste 19 Oeste 0 -- -- --
2019-11-25 22:00:00 17.5 9 Oeste 28 Oeste 0 -- -- --
2019-11-25 21:00:00 17.9 17 Oeste 32 Oeste 0 -- -- --
2019-11-25 20:00:00 18.2 11 Oeste 30 Oeste 0 -- -- --
2019-11-25 19:00:00 18.5 17 Oeste 40 Oeste 0 -- -- --
2019-11-25 18:00:00 18.4 16 Oeste 35 Oeste 0 -- -- --
2019-11-25 17:00:00 19.4 17 Oeste 46 Oeste 0 -- -- --
2019-11-25 16:00:00 20 18 Oeste 41 Noroeste 0 -- -- --
2019-11-25 15:00:00 20.9 17 Oeste 41 Noroeste 0 -- -- --
2019-11-25 14:00:00 20 20 Noroeste 33 Noroeste 0 -- -- --
2019-11-25 13:00:00 21.3 13 Oeste 32 Oeste 0 -- -- --
2019-11-25 12:00:00 20.4 19 Oeste 39 Oeste 0 -- -- --
2019-11-25 11:00:00 19.8 14 Noroeste 34 Noroeste 0 -- -- --
2019-11-25 10:00:00 17.6 6 Oeste 18 Oeste 0 -- -- --
2019-11-25 09:00:00 16.4 3 Oeste 16 Norte 0 -- -- --
2019-11-25 08:00:00 12.6 0 Calma 9 Oeste 0 -- -- --
2019-11-25 07:00:00 13.6 4 Noroeste 14 Oeste 0 -- -- --
2019-11-25 06:00:00 12.3 9 Oeste 15 Oeste 0 -- -- --
2019-11-25 05:00:00 12.3 3 Oeste 15 Noroeste 0 -- -- --
2019-11-25 04:00:00 13.4 7 Noroeste 28 Noroeste 0 -- -- --
2019-11-25 03:00:00 14.2 12 Noroeste 31 Noroeste 0 -- -- --
2019-11-25 02:00:00 13.3 12 Noroeste 34 Oeste 0 -- -- --
2019-11-25 01:00:00 13.2 13 Noroeste 26 Noroeste 0 -- -- --
2019-11-25 00:00:00 11.7 6 Oeste 14 Noroeste 0 -- -- --
2019-11-24 23:00:00 11.5 0 Calma 8 Noroeste 0 -- -- --
2019-11-24 22:00:00 12.3 5 Noroeste 19 Oeste 0 -- -- --
2019-11-24 21:00:00 13.4 8 Oeste 31 Oeste 0 -- -- --
2019-11-24 20:00:00 14.2 14 Oeste 30 Oeste 0 -- -- --
2019-11-24 19:00:00 14.3 11 Oeste 36 Oeste 0 -- -- --
2019-11-24 18:00:00 14.8 9 Oeste 24 Oeste 0 -- -- --
2019-11-24 17:00:00 16.5 12 Oeste 28 Noroeste 0 -- -- --
2019-11-24 16:00:00 17.6 12 Oeste 29 Noroeste 0 -- -- --
2019-11-24 15:00:00 17.6 13 Oeste 35 Oeste 0 -- -- --
2019-11-24 14:00:00 17.1 15 Oeste 34 Oeste 0 -- -- --
2019-11-24 13:00:00 17.6 15 Oeste 36 Oeste 0 -- -- --
2019-11-24 12:00:00 17.4 16 Oeste 43 Oeste 0 -- -- --
2019-11-24 11:00:00 16.5 15 Oeste 33 Oeste 0 -- -- --
2019-11-24 10:00:00 14.5 12 Oeste 41 Oeste 0 -- -- --
2019-11-24 09:00:00 12.6 20 Oeste 43 Oeste 0 -- -- --
2019-11-24 08:00:00 11.9 17 Oeste 42 Oeste 0 -- -- --
2019-11-24 07:00:00 12 19 Oeste 42 Oeste 0 -- -- --
2019-11-24 06:00:00 12.2 18 Oeste 39 Oeste 0 -- -- --
2019-11-24 05:00:00 12.6 16 Oeste 41 Oeste 0 -- -- --
2019-11-24 04:00:00 12.9 18 Oeste 45 Noroeste 0 -- -- --
2019-11-24 03:00:00 13.5 16 Oeste 38 Oeste 0 -- -- --
2019-11-24 02:00:00 14.2 20 Oeste 47 Oeste 0 -- -- --
2019-11-24 01:00:00 14 18 Oeste 45 Oeste 0 -- -- --
2019-11-24 00:00:00 14 19 Oeste 39 Oeste 0 -- -- --
2019-11-23 23:00:00 14.3 16 Oeste 35 Noroeste 0 -- -- --
2019-11-23 22:00:00 14.7 16 Oeste 39 Noroeste 0 -- -- --
2019-11-23 21:00:00 14.8 16 Oeste 39 Noroeste 0 -- -- --
2019-11-23 20:00:00 15.1 15 Oeste 47 Oeste 0 -- -- --
2019-11-23 19:00:00 15.2 17 Oeste 45 Noroeste 0 -- -- --
2019-11-23 18:00:00 15.1 11 Oeste 42 Noroeste 0 -- -- --
2019-11-23 17:00:00 16.2 18 Oeste 42 Noroeste 0 -- -- --
2019-11-23 16:00:00 16.9 17 Oeste 52 Noroeste 0 -- -- --
2019-11-23 15:00:00 17.4 19 Noroeste 53 Oeste 0 -- -- --
2019-11-23 14:00:00 17.3 20 Oeste 57 Noroeste 0 -- -- --
2019-11-23 13:00:00 16.5 24 Oeste 53 Oeste 0 -- -- --
2019-11-23 12:00:00 15.8 26 Oeste 66 Oeste 0 -- -- --
2019-11-23 11:00:00 15.9 22 Oeste 55 Oeste 0 -- -- --
2019-11-23 10:00:00 15.6 22 Oeste 52 Oeste 0 -- -- --
2019-11-23 09:00:00 14.2 20 Oeste 54 Oeste 0 -- -- --
2019-11-23 08:00:00 12.4 16 Oeste 45 Oeste 0 -- -- --
2019-11-23 07:00:00 13.1 19 Oeste 56 Oeste 0 -- -- --
2019-11-23 06:00:00 13 13 Oeste 59 Oeste 0.3 -- -- --
2019-11-23 05:00:00 15.5 19 Oeste 47 Oeste 0 -- -- --
2019-11-23 04:00:00 15.5 9 Oeste 31 Oeste 0 -- -- --
2019-11-23 03:00:00 14.5 9 Oeste 22 Oeste 0 -- -- --
2019-11-23 02:00:00 13.9 3 Oeste 12 Noroeste 0 -- -- --
2019-11-23 01:00:00 15.8 7 Oeste 26 Oeste 0 -- -- --
2019-11-23 00:00:00 15.8 2 Sudoeste 23 Oeste 0 -- -- --
2019-11-22 23:00:00 16.1 4 Oeste 14 Oeste 0 -- -- --
2019-11-22 22:00:00 16.2 5 Sudoeste 32 Sur 0.1 -- -- --
2019-11-22 21:00:00 16.2 5 Sudoeste 27 Oeste 0.3 -- -- --
2019-11-22 20:00:00 15.7 3 Sudoeste 11 Sur 0.1 -- -- --
2019-11-22 19:00:00 16.2 3 Sudoeste 15 Sudoeste 0.3 -- -- --
2019-11-22 18:00:00 16.7 4 Sudoeste 22 Sur 0.2 -- -- --
2019-11-22 17:00:00 18 2 Sudoeste 20 Sudoeste 0 -- -- --
2019-11-22 16:00:00 18.3 8 Sudoeste 26 Sudoeste 0 -- -- --
2019-11-22 15:00:00 18.1 4 Este 8 Este 0 -- -- --
2019-11-22 14:00:00 17.2 3 Sur 8 Sudeste 0 -- -- --
2019-11-22 13:00:00 15.9 0 Calma 8 Sur 0 -- -- --
2019-11-22 12:00:00 14.9 5 Sudeste 9 Sudeste 0 -- -- --
2019-11-22 11:00:00 14.6 2 Sudeste 6 Noroeste 0 -- -- --
2019-11-22 10:00:00 12.7 3 Noroeste 6 Noroeste 0 -- -- --
2019-11-22 09:00:00 -- 3 Sur 5 Sur 0 -- -- --
2019-11-22 08:00:00 -- 0 Calma 6 Sudeste 0 -- -- --
2019-11-22 07:00:00 -- 2 Oeste 6 Noroeste 0 -- -- --
2019-11-22 06:00:00 -- 0 Calma 5 Sur 0 -- -- --
2019-11-22 05:00:00 -- 2 Sur 6 Sur 0 -- -- --
2019-11-22 04:00:00 -- 0 Calma 6 Noroeste 0.1 -- -- --
2019-11-22 03:00:00 -- 0 Calma 0 Calma 0 -- -- --
2019-11-22 02:00:00 -- 0 Calma 6 Sur 0 -- -- --
2019-11-22 01:00:00 -- 2 Sur 6 Sur 0 -- -- --
2019-11-22 00:00:00 -- 0 Calma 4 Oeste 0.1 -- -- --
2019-11-21 23:00:00 -- 0 Calma 6 Sur 0 -- -- --
2019-11-21 22:00:00 -- 0 Calma 4 Sur 0 -- -- --
2019-11-21 21:00:00 -- 0 Calma 6 Sur 0 -- -- --
2019-11-21 20:00:00 -- 3 Sur 8 Sur 0 -- -- --
2019-11-21 19:00:00 -- 0 Calma 7 Sur 0 -- -- --
2019-11-21 18:00:00 -- 2 Sur 7 Sudeste 0 -- -- --
2019-11-21 17:00:00 -- 4 Sudeste 12 Sudeste 0 -- -- --
2019-11-21 16:00:00 -- 4 Sudeste 14 Sudeste 0 -- -- --
2019-11-21 15:00:00 -- 6 Sudeste 12 Sudeste 0 -- -- --
2019-11-21 14:00:00 -- 5 Sudeste 11 Este 0 -- -- --
2019-11-21 13:00:00 -- 6 Sudeste 11 Sudeste 0 -- -- --
2019-11-21 12:00:00 -- 5 Nordeste 6 Nordeste 0 -- -- --
2019-11-21 11:00:00 -- 2 Oeste 8 Sudeste 0 -- -- --
2019-11-21 10:00:00 13.2 4 Sudeste 15 Oeste 0 -- -- --
2019-11-21 09:00:00 12.2 7 Oeste 13 Noroeste 0 -- -- --
2019-11-21 08:00:00 -- -- -- -- -- -- -- -- --
2019-11-21 07:00:00 -- -- -- -- -- -- -- -- --
2019-11-21 06:00:00 -- -- -- -- -- -- -- -- --
2019-11-21 05:00:00 -- -- -- -- -- -- -- -- --
2019-11-21 04:00:00 -- -- -- -- -- -- -- -- --
2019-11-21 03:00:00 -- -- -- -- -- -- -- -- --
2019-11-21 02:00:00 -- -- -- -- -- -- -- -- --
2019-11-21 01:00:00 -- -- -- -- -- -- -- -- --
2019-11-21 00:00:00 -- -- -- -- -- -- -- -- --
2019-11-20 23:00:00 -- -- -- -- -- -- -- -- --
2019-11-20 22:00:00 -- -- -- -- -- -- -- -- --
2019-11-20 21:00:00 -- -- -- -- -- -- -- -- --
2019-11-20 20:00:00 -- -- -- -- -- -- -- -- --
2019-11-20 19:00:00 12.1 0 Calma 5 Sur 0 -- -- --
2019-11-20 18:00:00 13.5 0 Calma 9 Sur 0 -- -- --
2019-11-20 17:00:00 15.1 4 Sur 27 Sudeste 0 -- -- --
2019-11-20 16:00:00 14.9 12 Este 24 Este 0 -- -- --
2019-11-20 15:00:00 15.5 9 Este 16 Este 0 -- -- --
2019-11-20 14:00:00 16.3 6 Este 14 Nordeste 0 -- -- --
2019-11-20 13:00:00 16.4 9 Nordeste 19 Nordeste 0 -- -- --
2019-11-20 12:00:00 15.9 7 Noroeste 14 Noroeste 0 -- -- --
2019-11-20 11:00:00 14.5 6 Oeste 16 Oeste 0 -- -- --
2019-11-20 10:00:00 13.2 5 Oeste 12 Oeste 0 -- -- --
2019-11-20 09:00:00 9.6 8 Noroeste 12 Noroeste 0 -- -- --
2019-11-20 08:00:00 7.3 6 Noroeste 10 Oeste 0 -- -- --
2019-11-20 07:00:00 7.9 3 Sudoeste 9 Oeste 0 -- -- --
2019-11-20 06:00:00 8.7 6 Oeste 13 Oeste 0 -- -- --
2019-11-20 05:00:00 7.8 6 Oeste 11 Noroeste 0 -- -- --
2019-11-20 04:00:00 6.6 3 Oeste 7 Oeste 0 -- -- --
2019-11-20 03:00:00 6.1 2 Oeste 6 Oeste 0 -- -- --
2019-11-20 02:00:00 6.6 0 Calma 4 Oeste 0 -- -- --
2019-11-20 01:00:00 8.1 0 Calma 5 Sudeste 0 -- -- --
2019-11-20 00:00:00 8.7 0 Calma 7 Sur 0 -- -- --
2019-11-19 23:00:00 9.3 0 Calma 11 Este 0 -- -- --
2019-11-19 22:00:00 9.8 2 Noroeste 8 Noroeste 0 -- -- --
2019-11-19 21:00:00 8.8 0 Calma 2 Oeste 0 -- -- --
2019-11-19 20:00:00 9 0 Calma 9 Sur 0 -- -- --
2019-11-19 19:00:00 9.7 4 Sur 8 Sur 0 -- -- --
2019-11-19 18:00:00 12.2 4 Sur 15 Sudeste 0 -- -- --
2019-11-19 17:00:00 14.6 6 Sudeste 16 Sudeste 0 -- -- --
2019-11-19 16:00:00 14.6 8 Este 19 Sudeste 0 -- -- --
2019-11-19 15:00:00 15 9 Nordeste 15 Nordeste 0 -- -- --
2019-11-19 14:00:00 15.6 3 Noroeste 21 Noroeste 0 -- -- --
2019-11-19 13:00:00 14.9 11 Oeste 27 Noroeste 0 -- -- --
2019-11-19 12:00:00 13.8 10 Oeste 28 Oeste 0 -- -- --
2019-11-19 11:00:00 12.9 10 Oeste 30 Oeste 0 -- -- --
2019-11-19 10:00:00 10.1 11 Oeste 24 Noroeste 0 -- -- --
2019-11-19 09:00:00 8.1 12 Noroeste 21 Noroeste 0 -- -- --
2019-11-19 08:00:00 6.3 7 Noroeste 15 Oeste 0 -- -- --
2019-11-19 07:00:00 5.8 6 Oeste 13 Oeste 0 -- -- --
2019-11-19 06:00:00 6.3 8 Oeste 14 Oeste 0 -- -- --
2019-11-19 05:00:00 6.8 9 Oeste 18 Oeste 0 -- -- --
2019-11-19 04:00:00 6.7 5 Oeste 13 Noroeste 0 -- -- --
2019-11-19 03:00:00 7.7 6 Oeste 14 Noroeste 0 -- -- --
2019-11-19 02:00:00 7.7 5 Oeste 13 Oeste 0 -- -- --
2019-11-19 01:00:00 7.4 6 Oeste 12 Oeste 0 -- -- --
2019-11-19 00:00:00 6.8 6 Oeste 9 Noroeste 0 -- -- --
2019-11-18 23:00:00 8.2 2 Oeste 7 Noroeste 0 -- -- --
2019-11-18 22:00:00 8.8 4 Noroeste 10 Oeste 0 -- -- --
2019-11-18 21:00:00 9.7 6 Oeste 10 Oeste 0 -- -- --
2019-11-18 20:00:00 10.2 2 Oeste 6 Oeste 0 -- -- --
2019-11-18 19:00:00 10.8 0 Calma -- -- 0 -- -- --
2019-11-18 18:00:00 12.5 0 Calma 10 Norte 0 -- -- --
2019-11-18 17:00:00 14.6 5 Norte 14 Nordeste 0 -- -- --
2019-11-18 16:00:00 15 6 Norte 15 Nordeste 0 -- -- --
2019-11-18 15:00:00 15.3 6 Nordeste 17 Norte 0 -- -- --
2019-11-18 14:00:00 15.2 11 Norte -- -- 0 -- -- --
2019-11-18 13:00:00 15.8 8 Norte 17 Norte 0 -- -- --
2019-11-18 12:00:00 13.7 7 Noroeste 20 Oeste 0 -- -- --
2019-11-18 11:00:00 14.6 10 Noroeste 21 Oeste 0 -- -- --
2019-11-18 10:00:00 11.9 9 Noroeste 19 Oeste 0 -- -- --
2019-11-18 09:00:00 11.1 8 Oeste 21 Noroeste 0 -- -- --
2019-11-18 08:00:00 10.4 6 Oeste 22 Oeste 0 -- -- --
2019-11-18 07:00:00 11.1 9 Noroeste 23 Oeste 0.1 -- -- --
2019-11-18 06:00:00 11.1 8 Oeste 23 Noroeste 0 -- -- --
2019-11-18 05:00:00 11.2 5 Noroeste 19 Oeste 0 -- -- --
2019-11-18 04:00:00 11.2 7 Oeste 17 Oeste 0 -- -- --
2019-11-18 03:00:00 11.7 4 Sudoeste 26 Oeste 0 -- -- --
2019-11-18 02:00:00 11.7 12 Oeste 35 Oeste 0 -- -- --
2019-11-18 01:00:00 11.7 10 Oeste 26 Oeste 0 -- -- --
2019-11-18 00:00:00 12 9 Noroeste 24 Oeste 0 -- -- --
2019-11-17 23:00:00 14.1 14 Noroeste 29 Noroeste 0 -- -- --
2019-11-17 22:00:00 14.3 10 Noroeste 25 Noroeste 0 -- -- --
2019-11-17 21:00:00 14.1 9 Oeste 19 Oeste 0 -- -- --
2019-11-17 20:00:00 13.8 5 Noroeste 18 Noroeste 0 -- -- --
2019-11-17 19:00:00 14.6 9 Noroeste 21 Oeste 0 -- -- --
2019-11-17 18:00:00 15.3 7 Noroeste 26 Noroeste 0 -- -- --
2019-11-17 17:00:00 16 11 Oeste 27 Noroeste 0 -- -- --
2019-11-17 16:00:00 17 9 Oeste 32 Oeste 0 -- -- --
2019-11-17 15:00:00 16.1 13 Oeste 41 Oeste 0 -- -- --
2019-11-17 14:00:00 16.6 17 Oeste 41 Oeste 0 -- -- --
2019-11-17 13:00:00 17.1 15 Oeste 38 Oeste 0 -- -- --
2019-11-17 12:00:00 15.7 16 Oeste 41 Oeste 0 -- -- --
2019-11-17 11:00:00 14.3 18 Oeste 40 Oeste 0 -- -- --
2019-11-17 10:00:00 12.5 14 Oeste 36 Oeste 0 -- -- --
2019-11-17 09:00:00 10.8 14 Oeste 36 Oeste 0 -- -- --
2019-11-17 08:00:00 9.3 16 Oeste 36 Sudoeste 0 -- -- --
2019-11-17 07:00:00 8.4 11 Noroeste 27 Oeste 0 -- -- --
2019-11-17 06:00:00 9.2 13 Oeste 27 Oeste 0 -- -- --
2019-11-17 05:00:00 9.5 14 Noroeste 29 Noroeste 0 -- -- --
2019-11-17 04:00:00 9.5 17 Noroeste 32 Noroeste 0 -- -- --
2019-11-17 03:00:00 9.6 15 Oeste 29 Oeste 0 -- -- --
2019-11-17 02:00:00 9.9 13 Oeste 26 Oeste 0 -- -- --
2019-11-17 01:00:00 9.8 10 Oeste 22 Oeste 0 -- -- --
2019-11-17 00:00:00 9.8 10 Oeste 23 Oeste 0 -- -- --
2019-11-16 23:00:00 10.1 9 Oeste 22 Oeste 0 -- -- --
2019-11-16 22:00:00 11.3 11 Oeste 23 Oeste 0 -- -- --
2019-11-16 21:00:00 11.1 11 Oeste 23 Oeste 0 -- -- --
2019-11-16 20:00:00 11.3 11 Oeste 25 Oeste 0 -- -- --
2019-11-16 19:00:00 10.8 4 Oeste 11 Oeste 0 -- -- --
2019-11-16 18:00:00 12.7 3 Sur 10 Sur 0 -- -- --
2019-11-16 17:00:00 14.8 3 Sudeste 10 Oeste 0 -- -- --
2019-11-16 16:00:00 15 4 Nordeste 12 Nordeste 0 -- -- --
2019-11-16 15:00:00 14.8 6 Norte 14 Norte 0 -- -- --
2019-11-16 14:00:00 14.6 6 Norte 16 Norte 0 -- -- --
2019-11-16 13:00:00 14.4 7 Norte 19 Norte 0 -- -- --
2019-11-16 12:00:00 14.4 5 Oeste 23 Oeste 0 -- -- --
2019-11-16 11:00:00 11.4 13 Oeste 29 Oeste 0 -- -- --
2019-11-16 10:00:00 10 13 Oeste 29 Oeste 0 -- -- --
2019-11-16 09:00:00 9.5 12 Oeste 24 Oeste 0 -- -- --
2019-11-16 08:00:00 8.7 10 Oeste 22 Oeste 0 -- -- --
2019-11-16 07:00:00 7.9 8 Oeste 21 Noroeste 0 -- -- --
2019-11-16 06:00:00 8.5 8 Oeste 18 Oeste 0 -- -- --
2019-11-16 05:00:00 8.4 9 Oeste 20 Oeste 0 -- -- --
2019-11-16 04:00:00 8.5 10 Oeste 22 Oeste 0 -- -- --
2019-11-16 03:00:00 8.5 8 Oeste 20 Oeste 0 -- -- --
2019-11-16 02:00:00 8.7 8 Oeste 25 Oeste 0 -- -- --
2019-11-16 01:00:00 9.3 9 Oeste 22 Oeste 0 -- -- --
2019-11-16 00:00:00 9.1 6 Oeste 15 Oeste 0 -- -- --
2019-11-15 23:00:00 9.4 8 Noroeste 17 Oeste 0 -- -- --
2019-11-15 22:00:00 10.2 7 Oeste 24 Oeste 0 -- -- --
2019-11-15 21:00:00 10.7 11 Oeste 24 Oeste 0 -- -- --
2019-11-15 20:00:00 11.3 11 Oeste 24 Oeste 0 -- -- --
2019-11-15 19:00:00 11.1 8 Oeste 23 Oeste 0 -- -- --
2019-11-15 18:00:00 12.6 9 Oeste 22 Oeste 0 -- -- --
2019-11-15 17:00:00 14.4 8 Oeste 27 Oeste 0 -- -- --
2019-11-15 16:00:00 15.4 11 Oeste 30 Oeste 0 -- -- --
2019-11-15 15:00:00 16.4 12 Oeste 27 Oeste 0 -- -- --
2019-11-15 14:00:00 16.5 10 Oeste 30 Oeste 0 -- -- --
2019-11-15 13:00:00 15.2 14 Oeste 30 Oeste 0 -- -- --
2019-11-15 12:00:00 14.8 14 Oeste 34 Noroeste 0 -- -- --
2019-11-15 11:00:00 14 15 Oeste 33 Oeste 0 -- -- --
2019-11-15 10:00:00 13.3 12 Oeste 29 Oeste 0 -- -- --
2019-11-15 09:00:00 11.2 10 Oeste 24 Oeste 0 -- -- --
2019-11-15 08:00:00 9.2 6 Oeste 18 Oeste 0 -- -- --
2019-11-15 07:00:00 9.4 9 Oeste 24 Oeste 0 -- -- --
2019-11-15 06:00:00 9.9 4 Oeste 18 Oeste 0 -- -- --
2019-11-15 05:00:00 10.7 9 Oeste 27 Oeste 0 -- -- --
2019-11-15 04:00:00 11 12 Oeste 31 Oeste 0 -- -- --
2019-11-15 03:00:00 11.6 14 Oeste 39 Oeste 0 -- -- --
2019-11-15 02:00:00 12 12 Oeste 33 Noroeste 0 -- -- --
2019-11-15 01:00:00 12 14 Oeste 30 Oeste 0 -- -- --
2019-11-15 00:00:00 11.6 8 Oeste 21 Noroeste 0 -- -- --
2019-11-14 23:00:00 11.4 7 Noroeste 23 Noroeste 0 -- -- --
2019-11-14 22:00:00 11.1 4 Noroeste 15 Noroeste 0 -- -- --
2019-11-14 21:00:00 10.9 4 Noroeste 12 Oeste 0 -- -- --
2019-11-14 20:00:00 11.1 5 Oeste 38 Oeste 0 -- -- --
2019-11-14 19:00:00 11.9 15 Noroeste 38 Oeste 0 -- -- --
2019-11-14 18:00:00 12 22 Oeste 46 Oeste 0 -- -- --
2019-11-14 17:00:00 13 18 Oeste 50 Oeste 0 -- -- --
2019-11-14 16:00:00 13.6 22 Oeste 46 Oeste 0 -- -- --
2019-11-14 15:00:00 13.4 19 Oeste 46 Noroeste 0 -- -- --
2019-11-14 14:00:00 15.1 18 Noroeste 42 Oeste 0 -- -- --
2019-11-14 13:00:00 17.3 17 Oeste 44 Noroeste 0 -- -- --
2019-11-14 12:00:00 17 7 Oeste 21 Oeste 0 -- -- --
2019-11-14 11:00:00 15.7 14 Oeste 34 Oeste 0 -- -- --
2019-11-14 10:00:00 13 3 Oeste 13 Noroeste 0 -- -- --
2019-11-14 09:00:00 10.6 4 Oeste 6 Oeste 0 -- -- --
2019-11-14 08:00:00 10.2 2 Sur 9 Sur 0 -- -- --
2019-11-14 07:00:00 10.3 0 Calma 8 Noroeste 0 -- -- --
2019-11-14 06:00:00 10.6 0 Calma 6 Noroeste 0 -- -- --
2019-11-14 05:00:00 11.9 0 Calma 9 Sudeste 0 -- -- --
2019-11-14 04:00:00 14 5 Sudeste 9 Sudeste 0 -- -- --
2019-11-14 03:00:00 13.2 6 Sudeste 9 Sudeste 0 -- -- --
2019-11-14 02:00:00 11.2 4 Sur 9 Oeste 0 -- -- --
2019-11-14 01:00:00 12.6 0 Calma 9 Sur 0 -- -- --
2019-11-14 00:00:00 12 3 Sur 8 Sur 0 -- -- --
2019-11-13 23:00:00 11.6 0 Calma 5 Sur 0 -- -- --
2019-11-13 22:00:00 11.7 0 Calma 7 Sur 0 -- -- --
2019-11-13 21:00:00 12.1 3 Sur 7 Sur 0 -- -- --
2019-11-13 20:00:00 12.3 0 Calma 4 Sur 0 -- -- --
2019-11-13 19:00:00 13.1 0 Calma 6 Sur 0 -- -- --
2019-11-13 18:00:00 14.7 0 Calma 6 Norte 0 -- -- --
2019-11-13 17:00:00 16.8 3 Noroeste 17 Norte 0 -- -- --
2019-11-13 16:00:00 17 8 Norte 22 Nordeste 0 -- -- --
2019-11-13 15:00:00 17.1 12 Nordeste 26 Nordeste 0 -- -- --
2019-11-13 14:00:00 17.3 7 Noroeste 25 Noroeste 0.2 -- -- --
2019-11-13 13:00:00 15.9 18 Noroeste 48 Noroeste 1.3 -- -- --
2019-11-13 12:00:00 20.1 16 Oeste 34 Oeste 0 -- -- --
2019-11-13 11:00:00 17.6 11 Oeste 30 Noroeste 0 -- -- --
2019-11-13 10:00:00 17 8 Noroeste 21 Noroeste 0 -- -- --
2019-11-13 09:00:00 14.8 4 Oeste 15 Oeste 0 -- -- --
2019-11-13 08:00:00 13.8 0 Calma 4 Norte 0.1 -- -- --
2019-11-13 07:00:00 13.5 0 Calma 6 Noroeste 1.4 -- -- --
2019-11-13 06:00:00 14.1 3 Noroeste 18 Oeste 0.4 -- -- --
2019-11-13 05:00:00 15.4 10 Noroeste 28 Noroeste 0 -- -- --
2019-11-13 04:00:00 14.8 7 Oeste 19 Oeste 0 -- -- --
2019-11-13 03:00:00 15.1 5 Oeste 18 Oeste 0 -- -- --
2019-11-13 02:00:00 15.1 9 Noroeste 26 Noroeste 0 -- -- --
2019-11-13 01:00:00 15.4 11 Noroeste 29 Noroeste 0 -- -- --
2019-11-13 00:00:00 15.2 13 Noroeste 24 Noroeste 0 -- -- --
2019-11-12 23:00:00 14.3 11 Oeste 24 Oeste 0 -- -- --
2019-11-12 22:00:00 14.3 13 Oeste 29 Oeste 0 -- -- --
2019-11-12 21:00:00 14.8 14 Oeste 28 Oeste 0 -- -- --
2019-11-12 20:00:00 14.5 9 Oeste 21 Oeste 0 -- -- --
2019-11-12 19:00:00 14.3 6 Oeste 12 Oeste 0 -- -- --
2019-11-12 18:00:00 16.4 0 Calma 7 Oeste 0 -- -- --
2019-11-12 17:00:00 18.8 3 Oeste 14 Oeste 0 -- -- --
2019-11-12 16:00:00 19.2 7 Oeste 24 Oeste 0 -- -- --
2019-11-12 15:00:00 19.3 12 Oeste 24 Oeste 0 -- -- --
2019-11-12 14:00:00 19.3 9 Oeste 27 Oeste 0 -- -- --
2019-11-12 13:00:00 18.6 9 Oeste 24 Oeste 0 -- -- --
2019-11-12 12:00:00 17.4 12 Oeste 26 Oeste 0 -- -- --
2019-11-12 11:00:00 16.1 10 Oeste 26 Oeste 0 -- -- --
2019-11-12 10:00:00 14.4 11 Oeste 27 Oeste 0 -- -- --
2019-11-12 09:00:00 13 11 Oeste 24 Oeste 0 -- -- --
2019-11-12 08:00:00 11 9 Oeste 22 Oeste 0 -- -- --
2019-11-12 07:00:00 10.7 12 Oeste 24 Oeste 0 -- -- --
2019-11-12 06:00:00 11.2 9 Oeste 24 Oeste 0 -- -- --
2019-11-12 05:00:00 11.3 10 Oeste 21 Oeste 0 -- -- --
2019-11-12 04:00:00 11.6 9 Oeste 21 Noroeste 0 -- -- --
2019-11-12 03:00:00 11.5 9 Oeste 19 Oeste 0 -- -- --
2019-11-12 02:00:00 11.9 8 Oeste 21 Oeste 0 -- -- --
2019-11-12 01:00:00 11.6 7 Oeste 18 Oeste 0 -- -- --
2019-11-12 00:00:00 14 10 Noroeste 26 Norte 0 -- -- --
2019-11-11 23:00:00 15 11 Noroeste 31 Noroeste 0 -- -- --
2019-11-11 22:00:00 15.7 9 Noroeste 20 Noroeste 0 -- -- --
2019-11-11 21:00:00 16.2 10 Noroeste 24 Noroeste 0 -- -- --
2019-11-11 20:00:00 16.3 10 Noroeste 18 Noroeste 0 -- -- --
2019-11-11 19:00:00 15.5 6 Oeste 15 Noroeste 0 -- -- --
2019-11-11 18:00:00 15.3 5 Oeste 13 Noroeste 0 -- -- --
2019-11-11 17:00:00 16.5 7 Oeste 19 Oeste 0 -- -- --
2019-11-11 16:00:00 17.3 8 Oeste 25 Oeste 0 -- -- --
2019-11-11 15:00:00 17.6 11 Oeste 26 Noroeste 0 -- -- --
2019-11-11 14:00:00 17.4 8 Oeste 23 Oeste 0 -- -- --
2019-11-11 13:00:00 16.8 12 Noroeste 32 Oeste 0 -- -- --
2019-11-11 12:00:00 16.2 15 Oeste 30 Noroeste 0 -- -- --
2019-11-11 11:00:00 14.6 13 Oeste 34 Oeste 0 -- -- --
2019-11-11 10:00:00 12.4 15 Oeste 30 Oeste 0 -- -- --
2019-11-11 09:00:00 10.8 15 Oeste 28 Oeste 0 -- -- --
2019-11-11 08:00:00 9.5 11 Oeste 29 Oeste 0 -- -- --
2019-11-11 07:00:00 9.5 13 Oeste 28 Oeste 0 -- -- --
2019-11-11 06:00:00 9.2 12 Oeste 24 Oeste 0 -- -- --
2019-11-11 05:00:00 9.1 8 Oeste 21 Oeste 0 -- -- --
2019-11-11 04:00:00 9.7 12 Oeste 29 Oeste 0 -- -- --
2019-11-11 03:00:00 10 10 Oeste 26 Oeste 0 -- -- --
2019-11-11 02:00:00 9.8 10 Oeste 24 Noroeste 0 -- -- --
2019-11-11 01:00:00 10.6 12 Oeste 28 Oeste 0 -- -- --
2019-11-11 00:00:00 10.7 9 Oeste 23 Noroeste 0 -- -- --
2019-11-10 23:00:00 11.2 11 Oeste 24 Noroeste 0 -- -- --
2019-11-10 22:00:00 11.8 10 Oeste 20 Noroeste 0 -- -- --
2019-11-10 21:00:00 12.9 11 Noroeste 26 Noroeste 0 -- -- --
2019-11-10 20:00:00 13.8 9 Noroeste 28 Noroeste 0 -- -- --
2019-11-10 19:00:00 14.9 9 Noroeste 18 Noroeste 0 -- -- --
2019-11-10 18:00:00 14.5 4 Noroeste 30 Oeste 0 -- -- --
2019-11-10 17:00:00 16.1 17 Noroeste 34 Oeste 0 -- -- --
2019-11-10 16:00:00 16.5 11 Oeste 30 Oeste 0 -- -- --
2019-11-10 15:00:00 17 17 Oeste 33 Oeste 0 -- -- --
2019-11-10 14:00:00 17.2 16 Noroeste 41 Noroeste 0 -- -- --
2019-11-10 13:00:00 15.9 21 Noroeste -- -- 0 -- -- --
2019-11-10 12:00:00 -- -- -- -- -- -- -- -- --
2019-11-10 11:00:00 -- -- -- -- -- -- -- -- --
2019-11-10 10:00:00 13 15 Oeste -- -- 0 -- -- --
2019-11-10 09:00:00 12.9 15 Oeste 31 Oeste 0 -- -- --
2019-11-10 08:00:00 11.6 12 Oeste 37 Oeste 0 -- -- --
2019-11-10 07:00:00 11.9 17 Oeste 41 Oeste 0 -- -- --
2019-11-10 06:00:00 12 16 Oeste 39 Oeste 0 -- -- --
2019-11-10 05:00:00 13.9 15 Noroeste 44 Noroeste 0 -- -- --
2019-11-10 04:00:00 14.5 13 Oeste 38 Oeste 0 -- -- --
2019-11-10 03:00:00 14.5 15 Oeste 39 Noroeste 0 -- -- --
2019-11-10 02:00:00 14.7 12 Oeste 26 Oeste 0 -- -- --
2019-11-10 01:00:00 14.9 12 Oeste 26 Oeste 0 -- -- --
2019-11-10 00:00:00 14.5 5 Norte 14 Noroeste 0 -- -- --
2019-11-09 23:00:00 14.5 6 Norte 22 Noroeste 0 -- -- --
2019-11-09 22:00:00 14.9 12 Noroeste 30 Noroeste 0 -- -- --
2019-11-09 21:00:00 15 4 Noroeste 19 Oeste 0 -- -- --
2019-11-09 20:00:00 14.8 4 Oeste 9 Noroeste 0 -- -- --
2019-11-09 19:00:00 15.3 0 Calma 8 Oeste 0 -- -- --
2019-11-09 18:00:00 15.4 3 Oeste 21 Oeste 0 -- -- --
2019-11-09 17:00:00 16.7 5 Oeste 27 Oeste 0 -- -- --
2019-11-09 16:00:00 17.6 11 Oeste 40 Oeste 0 -- -- --
2019-11-09 15:00:00 18.9 14 Oeste 32 Oeste 0 -- -- --
2019-11-09 14:00:00 19.8 13 Oeste 38 Oeste 0 -- -- --
2019-11-09 13:00:00 18.7 15 Oeste 32 Noroeste 0 -- -- --
2019-11-09 12:00:00 18.1 14 Oeste 33 Oeste 0 -- -- --
2019-11-09 11:00:00 16.2 14 Oeste 27 Oeste 0 -- -- --
2019-11-09 10:00:00 14.9 13 Oeste 36 Oeste 0 -- -- --
2019-11-09 09:00:00 13.2 15 Oeste 33 Oeste 0 -- -- --
2019-11-09 08:00:00 11.8 12 Oeste 32 Oeste 0 -- -- --
2019-11-09 07:00:00 11.5 8 Oeste 25 Oeste 0 -- -- --
2019-11-09 06:00:00 10.9 6 Oeste 18 Oeste 0 -- -- --
2019-11-09 05:00:00 11.5 8 Oeste 26 Noroeste 0 -- -- --
2019-11-09 04:00:00 12.1 13 Oeste 32 Oeste 0 -- -- --
2019-11-09 03:00:00 12.8 13 Oeste 32 Oeste 0 -- -- --
2019-11-09 02:00:00 13.2 14 Oeste 29 Noroeste 0 -- -- --
2019-11-09 01:00:00 13.8 16 Oeste 37 Oeste 0 -- -- --
2019-11-09 00:00:00 14.4 19 Oeste 39 Oeste 0 -- -- --
2019-11-08 23:00:00 14.5 18 Oeste 43 Oeste 0 -- -- --
2019-11-08 22:00:00 14.2 14 Oeste 37 Oeste 0 -- -- --
2019-11-08 21:00:00 14.6 15 Oeste 37 Oeste 0 -- -- --
2019-11-08 20:00:00 14.5 14 Oeste 33 Oeste 0 -- -- --
2019-11-08 19:00:00 14.6 14 Oeste 36 Oeste 0 -- -- --
2019-11-08 18:00:00 15.1 15 Oeste 37 Noroeste 0 -- -- --
2019-11-08 17:00:00 15.7 14 Oeste 48 Oeste 0 -- -- --
2019-11-08 16:00:00 16.4 23 Oeste 44 Noroeste 0 -- -- --
2019-11-08 15:00:00 16.9 19 Noroeste 46 Oeste 0 -- -- --
2019-11-08 14:00:00 17.1 18 Noroeste 39 Oeste 0 -- -- --
2019-11-08 13:00:00 16.7 18 Noroeste 36 Noroeste 0 -- -- --
2019-11-08 12:00:00 16.1 14 Noroeste 31 Oeste 0 -- -- --
2019-11-08 11:00:00 14.8 14 Oeste 32 Noroeste 0 -- -- --
2019-11-08 10:00:00 13.8 15 Oeste 36 Oeste 0 -- -- --
2019-11-08 09:00:00 12.3 14 Oeste 31 Oeste 0 -- -- --
2019-11-08 08:00:00 11.5 14 Noroeste 36 Oeste 0 -- -- --
2019-11-08 07:00:00 11.2 13 Noroeste 29 Oeste 0 -- -- --
2019-11-08 06:00:00 10.2 6 Oeste 18 Oeste 0 -- -- --
2019-11-08 05:00:00 11.5 7 Oeste 22 Oeste 0 -- -- --
2019-11-08 04:00:00 11.3 5 Oeste 23 Noroeste 0 -- -- --
2019-11-08 03:00:00 12.6 10 Noroeste 32 Oeste 0 -- -- --
2019-11-08 02:00:00 12.8 11 Oeste 35 Oeste 0 -- -- --
2019-11-08 01:00:00 13.7 17 Noroeste 33 Noroeste 0 -- -- --
2019-11-08 00:00:00 13.9 9 Oeste 22 Oeste 0 -- -- --